createdAt,value
2022-08-05T00:00:00.391Z,3.93
2022-08-05T00:02:07.597Z,4.10
2022-08-05T00:04:11.025Z,3.97
2022-08-05T00:06:29.301Z,3.90
2022-08-05T00:08:36.288Z,3.70
2022-08-05T00:10:39.221Z,4.53
2022-08-05T00:12:56.581Z,3.80
2022-08-05T00:15:56.309Z,4.17
2022-08-05T00:17:23.650Z,3.87
2022-08-05T00:19:33.400Z,3.63
2022-08-05T00:21:43.257Z,3.70
2022-08-05T00:24:05.033Z,3.67
2022-08-05T00:26:09.804Z,3.40
2022-08-05T00:28:13.889Z,3.47
2022-08-05T00:30:17.765Z,3.53
2022-08-05T00:32:20.477Z,3.07
2022-08-05T00:34:55.925Z,4.00
2022-08-05T00:37:12.927Z,3.80
2022-08-05T00:39:16.659Z,3.20
2022-08-05T00:41:28.893Z,3.67
2022-08-05T00:43:51.456Z,3.50
2022-08-05T00:45:55.403Z,3.37
2022-08-05T00:48:06.033Z,3.33
2022-08-05T00:50:09.739Z,3.70
2022-08-05T00:52:12.311Z,3.37
2022-08-05T00:54:14.944Z,4.00
2022-08-05T00:56:22.716Z,3.53
2022-08-05T00:58:27.363Z,3.67
2022-08-05T01:00:31.453Z,3.03
2022-08-05T01:02:35.469Z,3.87
2022-08-05T01:04:38.058Z,3.60
2022-08-05T01:06:48.813Z,4.07
2022-08-05T01:08:52.070Z,3.40
2022-08-05T01:10:56.094Z,3.27
2022-08-05T01:13:12.877Z,3.20
2022-08-05T01:15:35.092Z,3.40
2022-08-05T01:17:43.942Z,3.63
2022-08-05T01:20:02.240Z,3.70
2022-08-05T01:22:18.836Z,3.53
2022-08-05T01:24:37.502Z,3.13
2022-08-05T01:26:45.457Z,3.63
2022-08-05T01:28:53.387Z,3.47
2022-08-05T01:31:00.214Z,4.00
2022-08-05T01:33:08.307Z,3.30
2022-08-05T01:35:13.004Z,3.73
2022-08-05T01:37:44.314Z,4.30
2022-08-05T01:39:48.223Z,3.10
2022-08-05T01:41:50.865Z,3.20
2022-08-05T01:43:57.410Z,3.23
2022-08-05T01:46:06.926Z,3.50
2022-08-05T01:48:10.540Z,3.30
2022-08-05T01:50:17.295Z,4.13
2022-08-05T01:52:20.056Z,3.57
2022-08-05T01:54:25.587Z,3.83
2022-08-05T01:58:12.659Z,4.40
2022-08-05T01:58:52.556Z,6.67
2022-08-05T02:00:57.317Z,3.70
2022-08-05T02:03:03.632Z,3.50
2022-08-05T02:05:11.829Z,3.30
2022-08-05T02:07:22.178Z,3.20
2022-08-05T02:09:25.591Z,3.77
2022-08-05T02:11:34.311Z,3.20
2022-08-05T02:13:53.424Z,3.83
2022-08-05T02:16:02.432Z,3.40
2022-08-05T02:18:32.146Z,3.70
2022-08-05T02:20:31.751Z,4.27
2022-08-05T02:22:43.933Z,3.70
2022-08-05T02:24:51.318Z,4.10
2022-08-05T02:26:57.279Z,3.80
2022-08-05T02:29:01.294Z,3.40
2022-08-05T02:31:14.302Z,3.30
2022-08-05T02:33:35.749Z,3.50
2022-08-05T02:35:44.985Z,3.60
2022-08-05T02:38:00.342Z,3.70
2022-08-05T02:40:05.556Z,3.17
2022-08-05T02:42:12.178Z,3.07
2022-08-05T02:44:31.564Z,3.73
2022-08-05T02:46:35.848Z,3.30
2022-08-05T02:48:46.747Z,3.43
2022-08-05T02:50:51.782Z,3.77
2022-08-05T02:52:54.410Z,3.97
2022-08-05T02:55:01.816Z,3.87
2022-08-05T02:57:10.281Z,3.67
2022-08-05T02:59:47.775Z,3.90
2022-08-05T03:01:52.539Z,4.20
2022-08-05T03:04:02.543Z,3.43
2022-08-05T03:06:55.813Z,3.80
2022-08-05T03:08:30.804Z,3.73
2022-08-05T03:10:35.167Z,3.20
2022-08-05T03:12:39.403Z,3.43
2022-08-05T03:14:46.162Z,3.17
2022-08-05T03:16:53.475Z,3.40
2022-08-05T03:18:56.221Z,3.70
2022-08-05T03:20:59.255Z,3.70
2022-08-05T03:23:02.209Z,3.40
2022-08-05T03:25:31.762Z,2.97
2022-08-05T03:27:30.176Z,2.53
2022-08-05T03:30:07.827Z,3.60
2022-08-05T03:32:14.341Z,3.53
2022-08-05T03:34:17.267Z,2.70
2022-08-05T03:36:30.163Z,3.17
2022-08-05T03:38:37.526Z,3.37
2022-08-05T03:40:41.609Z,3.30
2022-08-05T03:42:52.545Z,2.90
2022-08-05T03:44:55.711Z,3.30
2022-08-05T03:46:59.676Z,3.23
2022-08-05T03:49:03.605Z,2.97
2022-08-05T03:52:38.008Z,3.47
2022-08-05T03:56:00.747Z,3.03
2022-08-05T03:56:11.425Z,3.27
2022-08-05T03:58:20.807Z,3.40
2022-08-05T04:00:32.248Z,3.20
2022-08-05T04:02:37.630Z,2.87
2022-08-05T04:04:42.086Z,3.10
2022-08-05T04:06:51.392Z,3.50
2022-08-05T04:08:54.531Z,3.03
2022-08-05T04:10:57.471Z,3.27
2022-08-05T04:13:00.362Z,3.00
2022-08-05T04:15:06.930Z,3.17
2022-08-05T04:17:11.943Z,3.17
2022-08-05T04:19:14.587Z,3.30
2022-08-05T04:22:05.088Z,3.43
2022-08-05T04:24:05.998Z,2.80
2022-08-05T04:26:07.267Z,3.53
2022-08-05T04:28:11.348Z,3.10
2022-08-05T04:30:16.128Z,3.00
2022-08-05T04:32:20.056Z,2.90
2022-08-05T04:34:35.311Z,3.33
2022-08-05T04:36:49.763Z,3.40
2022-08-05T04:38:55.032Z,3.97
2022-08-05T04:40:59.731Z,3.50
2022-08-05T04:43:06.132Z,3.70
2022-08-05T04:45:22.986Z,3.80
2022-08-05T04:47:38.527Z,3.90
2022-08-05T04:50:02.876Z,3.63
2022-08-05T04:52:09.423Z,3.90
2022-08-05T04:54:12.488Z,3.73
2022-08-05T04:56:34.587Z,3.77
2022-08-05T04:58:37.967Z,4.00
2022-08-05T05:00:40.668Z,3.63
2022-08-05T05:02:43.842Z,4.00
2022-08-05T05:04:49.680Z,4.20
2022-08-05T05:06:57.604Z,3.80
2022-08-05T05:09:02.222Z,3.90
2022-08-05T05:11:08.488Z,3.60
2022-08-05T05:13:11.320Z,3.93
2022-08-05T05:15:57.134Z,4.53
2022-08-05T05:17:56.671Z,4.60
2022-08-05T05:20:00.323Z,4.30
2022-08-05T05:22:06.261Z,5.60
2022-08-05T05:24:56.334Z,5.83
2022-08-05T05:26:50.047Z,4.97
2022-08-05T05:28:54.650Z,4.87
2022-08-05T05:31:00.354Z,4.90
2022-08-05T05:33:15.910Z,5.00
2022-08-05T05:35:22.399Z,5.70
2022-08-05T05:37:25.458Z,4.70
2022-08-05T05:39:41.479Z,4.13
2022-08-05T05:41:45.864Z,5.03
2022-08-05T05:44:00.261Z,3.90
2022-08-05T05:46:03.737Z,4.47
2022-08-05T05:48:08.878Z,4.50
2022-08-05T05:50:16.273Z,4.20
2022-08-05T05:52:28.638Z,4.80
2022-08-05T05:54:50.905Z,4.50
2022-08-05T05:56:55.230Z,4.60
2022-08-05T05:59:03.412Z,5.47
2022-08-05T06:01:12.589Z,4.57
2022-08-05T06:03:40.027Z,4.27
2022-08-05T06:05:38.798Z,4.70
2022-08-05T06:07:57.864Z,4.90
2022-08-05T06:10:10.024Z,4.90
2022-08-05T06:12:14.362Z,4.70
2022-08-05T06:14:18.271Z,5.13
2022-08-05T06:16:28.554Z,4.40
2022-08-05T06:18:36.597Z,5.07
2022-08-05T06:20:42.454Z,4.00
2022-08-05T06:22:50.549Z,3.80
2022-08-05T06:24:55.866Z,3.93
2022-08-05T06:26:58.507Z,4.40
2022-08-05T06:29:06.954Z,4.70
2022-08-05T06:31:30.633Z,3.90
2022-08-05T06:34:06.334Z,4.43
2022-08-05T06:36:09.917Z,6.93
2022-08-05T06:38:13.125Z,8.87
2022-08-05T06:40:18.384Z,4.43
2022-08-05T06:42:23.652Z,4.40
2022-08-05T06:44:30.015Z,4.37
2022-08-05T06:46:33.180Z,4.93
2022-08-05T06:48:55.419Z,5.03
2022-08-05T06:51:00.936Z,5.57
2022-08-05T06:53:19.556Z,4.03
2022-08-05T06:55:25.486Z,4.20
2022-08-05T06:58:03.423Z,4.60
2022-08-05T06:59:57.967Z,4.00
2022-08-05T07:02:00.935Z,4.40
2022-08-05T07:04:03.916Z,13.77
2022-08-05T07:06:14.245Z,5.23
2022-08-05T07:08:17.926Z,18.33
2022-08-05T07:10:21.830Z,6.80
2022-08-05T07:12:49.107Z,6.80
2022-08-05T07:15:03.448Z,7.63
2022-08-05T07:17:58.981Z,5.17
2022-08-05T07:22:02.389Z,4.00
2022-08-05T07:24:06.041Z,4.33
2022-08-05T07:26:20.930Z,6.07
2022-08-05T07:28:26.267Z,4.80
2022-08-05T07:30:33.438Z,5.17
2022-08-05T07:32:38.217Z,4.30
2022-08-05T07:34:42.563Z,5.73
2022-08-05T07:36:45.303Z,10.37
2022-08-05T07:38:47.953Z,5.93
2022-08-05T07:40:55.692Z,5.53
2022-08-05T07:43:04.857Z,6.03
2022-08-05T07:45:17.324Z,6.43
2022-08-05T07:47:42.581Z,5.70
2022-08-05T07:49:54.133Z,7.47
2022-08-05T07:51:57.017Z,6.07
2022-08-05T07:53:59.986Z,6.53
2022-08-05T07:57:01.506Z,8.13
2022-08-05T07:58:58.576Z,7.43
2022-08-05T08:00:54.789Z,7.23
2022-08-05T08:03:14.569Z,7.20
2022-08-05T08:05:19.866Z,5.00
2022-08-05T08:07:22.960Z,6.63
2022-08-05T08:09:26.362Z,5.50
2022-08-05T08:11:51.293Z,6.30
2022-08-05T08:14:00.646Z,5.00
2022-08-05T08:16:34.532Z,5.23
2022-08-05T08:18:27.770Z,5.10
2022-08-05T08:21:01.011Z,4.30
2022-08-05T08:22:53.451Z,4.40
2022-08-05T08:25:02.913Z,5.20
2022-08-05T08:27:07.671Z,4.63
2022-08-05T08:29:21.756Z,4.90
2022-08-05T08:31:34.003Z,4.30
2022-08-05T08:33:38.635Z,4.20
2022-08-05T08:35:52.313Z,3.77
2022-08-05T08:37:56.680Z,4.10
2022-08-05T08:40:01.495Z,7.90
2022-08-05T08:42:27.533Z,3.90
2022-08-05T08:45:19.856Z,2.80
2022-08-05T08:46:56.806Z,2.93
2022-08-05T08:50:08.867Z,2.90
2022-08-05T08:52:04.150Z,3.50
2022-08-05T08:53:47.443Z,3.60
2022-08-05T08:56:04.966Z,3.70
2022-08-05T08:58:09.247Z,4.70
2022-08-05T09:00:12.426Z,2.90
2022-08-05T09:02:20.211Z,3.50
2022-08-05T09:04:30.535Z,3.00
2022-08-05T09:06:33.588Z,3.07
2022-08-05T09:08:40.217Z,2.97
2022-08-05T09:10:46.842Z,2.90
2022-08-05T09:12:50.926Z,4.00
2022-08-05T09:15:01.189Z,2.90
2022-08-05T09:17:15.987Z,3.10
2022-08-05T09:19:36.834Z,2.93
2022-08-05T09:22:28.721Z,3.40
2022-08-05T09:24:18.878Z,2.83
2022-08-05T09:26:22.206Z,3.57
2022-08-05T09:28:31.705Z,3.80
2022-08-05T09:30:35.790Z,3.23
2022-08-05T09:32:51.690Z,3.43
2022-08-05T09:34:58.877Z,3.87
2022-08-05T09:37:01.998Z,4.30
2022-08-05T09:39:16.460Z,3.00
2022-08-05T09:41:21.008Z,3.20
2022-08-05T09:43:27.953Z,3.23
2022-08-05T09:46:06.497Z,3.40
2022-08-05T09:48:19.763Z,3.27
2022-08-05T09:50:38.546Z,4.13
2022-08-05T09:52:48.284Z,2.97
2022-08-05T09:54:57.056Z,3.33
2022-08-05T09:57:01.239Z,2.73
2022-08-05T09:59:06.110Z,3.47
2022-08-05T10:01:13.725Z,2.90
2022-08-05T10:03:18.136Z,2.87
2022-08-05T10:05:24.176Z,3.23
2022-08-05T10:08:34.947Z,3.27
2022-08-05T10:10:15.018Z,2.77
2022-08-05T10:12:33.212Z,2.87
2022-08-05T10:14:36.747Z,3.23
2022-08-05T10:16:52.580Z,3.27
2022-08-05T10:18:57.129Z,3.90
2022-08-05T10:21:06.187Z,2.97
2022-08-05T10:23:34.252Z,3.47
2022-08-05T10:25:42.339Z,3.27
2022-08-05T10:28:13.599Z,3.00
2022-08-05T10:32:48.963Z,3.20
2022-08-05T10:32:52.646Z,3.30
2022-08-05T10:35:00.851Z,3.10
2022-08-05T10:37:04.333Z,3.40
2022-08-05T10:39:15.215Z,3.30
2022-08-05T10:41:44.858Z,3.43
2022-08-05T10:43:52.728Z,2.80
2022-08-05T10:46:06.558Z,3.20
2022-08-05T10:48:40.659Z,3.30
2022-08-05T10:50:59.642Z,2.80
2022-08-05T10:53:02.741Z,2.77
2022-08-05T10:55:09.859Z,2.70
2022-08-05T10:57:14.548Z,2.83
2022-08-05T11:00:02.937Z,2.60
2022-08-05T11:01:54.928Z,2.90
2022-08-05T11:04:08.657Z,2.40
2022-08-05T11:06:15.913Z,2.77
2022-08-05T11:08:27.659Z,2.83
2022-08-05T11:10:49.996Z,2.60
2022-08-05T11:13:02.781Z,2.60
2022-08-05T11:15:19.468Z,2.63
2022-08-05T11:18:00.280Z,2.60
2022-08-05T11:20:17.309Z,2.60
2022-08-05T11:22:39.225Z,2.57
2022-08-05T11:24:50.763Z,2.70
2022-08-05T11:27:50.110Z,2.20
2022-08-05T11:30:00.393Z,2.60
2022-08-05T11:32:29.013Z,2.43
2022-08-05T11:34:37.657Z,2.47
2022-08-05T11:36:44.398Z,2.30
2022-08-05T11:38:54.681Z,2.50
2022-08-05T11:41:12.704Z,2.93
2022-08-05T11:44:07.184Z,2.80
2022-08-05T11:46:27.290Z,2.63
2022-08-05T11:48:13.347Z,2.90
2022-08-05T11:50:17.549Z,2.97
2022-08-05T11:52:24.502Z,2.53
2022-08-05T11:54:34.935Z,2.60
2022-08-05T11:56:45.261Z,2.60
2022-08-05T11:58:54.567Z,2.30
2022-08-05T12:01:04.608Z,2.63
2022-08-05T12:03:28.859Z,2.77
2022-08-05T12:05:39.702Z,3.50
2022-08-05T12:08:03.227Z,2.87
2022-08-05T12:10:09.556Z,2.80
2022-08-05T12:12:14.228Z,2.40
2022-08-05T12:14:18.359Z,2.87
2022-08-05T12:16:25.466Z,2.90
2022-08-05T12:18:33.207Z,2.60
2022-08-05T12:20:38.922Z,2.90
2022-08-05T12:22:41.720Z,2.80
2022-08-05T12:24:51.772Z,2.80
2022-08-05T12:26:56.966Z,3.80
2022-08-05T12:29:01.519Z,3.03
2022-08-05T12:31:07.750Z,2.57
2022-08-05T12:33:27.362Z,2.87
2022-08-05T12:35:37.144Z,2.87
2022-08-05T12:37:42.672Z,3.20
2022-08-05T12:39:51.044Z,3.30
2022-08-05T12:41:58.618Z,2.73
2022-08-05T12:44:02.499Z,2.70
2022-08-05T12:46:05.198Z,3.13
2022-08-05T12:48:32.699Z,2.80
2022-08-05T12:50:38.120Z,2.90
2022-08-05T12:52:43.323Z,2.93
2022-08-05T12:54:47.584Z,3.00
2022-08-05T12:56:54.262Z,2.97
2022-08-05T12:59:20.803Z,3.20
2022-08-05T13:02:00.628Z,3.03
2022-08-05T13:03:54.280Z,3.07
2022-08-05T13:06:01.200Z,3.20
2022-08-05T13:08:08.553Z,3.20
2022-08-05T13:10:13.054Z,3.30
2022-08-05T13:12:16.607Z,3.60
2022-08-05T13:14:24.857Z,3.20
2022-08-05T13:16:47.272Z,3.70
2022-08-05T13:18:55.178Z,3.20
2022-08-05T13:21:01.825Z,3.20
2022-08-05T13:23:07.629Z,3.70
2022-08-05T13:25:19.133Z,3.47
2022-08-05T13:27:37.982Z,3.30
2022-08-05T13:30:33.020Z,3.70
2022-08-05T13:32:07.402Z,3.67
2022-08-05T13:34:24.373Z,3.10
2022-08-05T13:36:29.035Z,3.40
2022-08-05T13:38:38.174Z,3.67
2022-08-05T13:40:50.008Z,3.40
2022-08-05T13:42:55.614Z,3.50
2022-08-05T13:44:58.996Z,3.20
2022-08-05T13:47:08.807Z,3.47
2022-08-05T13:49:13.621Z,2.97
2022-08-05T13:51:16.331Z,3.23
2022-08-05T13:53:19.387Z,3.30
2022-08-05T13:55:41.733Z,3.70
2022-08-05T13:57:49.033Z,3.47
2022-08-05T13:59:59.228Z,3.60
2022-08-05T14:02:04.801Z,3.30
2022-08-05T14:04:26.607Z,3.13
2022-08-05T14:06:31.938Z,3.53
2022-08-05T14:08:35.749Z,3.27
2022-08-05T14:10:39.420Z,3.27
2022-08-05T14:12:48.401Z,3.13
2022-08-05T14:14:52.275Z,3.20
2022-08-05T14:16:55.448Z,4.00
2022-08-05T14:19:04.401Z,3.00
2022-08-05T14:22:08.336Z,3.23
2022-08-05T14:23:36.341Z,3.17
2022-08-05T14:25:44.951Z,3.10
2022-08-05T14:27:51.051Z,3.20
2022-08-05T14:29:54.269Z,3.40
2022-08-05T14:32:02.516Z,2.63
2022-08-05T14:34:15.742Z,3.13
2022-08-05T14:36:20.428Z,3.10
2022-08-05T14:38:32.242Z,3.00
2022-08-05T14:40:39.011Z,2.83
2022-08-05T14:42:42.261Z,3.27
2022-08-05T14:44:45.728Z,2.50
2022-08-05T14:46:48.812Z,2.90
2022-08-05T14:48:51.676Z,3.07
2022-08-05T14:50:55.549Z,3.20
2022-08-05T14:52:59.517Z,3.00
2022-08-05T14:55:03.019Z,2.87
2022-08-05T14:57:09.603Z,3.27
2022-08-05T14:59:16.401Z,4.03
2022-08-05T15:01:24.174Z,3.40
2022-08-05T15:03:43.092Z,3.63
2022-08-05T15:06:13.516Z,3.63
2022-08-05T15:08:17.866Z,4.10
2022-08-05T15:10:36.262Z,4.37
2022-08-05T15:13:00.152Z,5.80
2022-08-05T15:15:04.410Z,5.10
2022-08-05T15:17:14.604Z,5.13
2022-08-05T15:19:38.980Z,5.27
2022-08-05T15:21:41.747Z,5.90
2022-08-05T15:23:45.270Z,6.87
2022-08-05T15:25:52.351Z,6.53
2022-08-05T15:27:58.694Z,6.20
2022-08-05T15:30:01.601Z,6.43
2022-08-05T15:32:05.782Z,6.60
2022-08-05T15:34:32.514Z,6.60
2022-08-05T15:36:33.706Z,5.30
2022-08-05T15:38:41.760Z,5.53
2022-08-05T15:41:20.175Z,5.40
2022-08-05T15:43:19.686Z,5.60
2022-08-05T15:45:38.314Z,6.40
2022-08-05T15:47:42.631Z,5.13
2022-08-05T15:49:56.001Z,5.10
2022-08-05T15:52:12.887Z,5.00
2022-08-05T15:54:17.344Z,4.70
2022-08-05T15:56:20.186Z,5.07
2022-08-05T15:58:24.217Z,4.23
2022-08-05T16:00:42.896Z,5.10
2022-08-05T16:02:49.989Z,4.87
2022-08-05T16:04:53.094Z,4.83
2022-08-05T16:06:56.003Z,3.93
2022-08-05T16:08:58.934Z,4.30
2022-08-05T16:11:02.327Z,4.07
2022-08-05T16:13:05.487Z,4.40
2022-08-05T16:15:10.331Z,3.83
2022-08-05T16:17:22.723Z,3.60
2022-08-05T16:20:04.252Z,3.10
2022-08-05T16:21:58.750Z,3.70
2022-08-05T16:24:06.437Z,3.53
2022-08-05T16:26:15.284Z,4.23
2022-08-05T16:28:19.496Z,3.50
2022-08-05T16:30:26.114Z,3.40
2022-08-05T16:32:29.923Z,3.07
2022-08-05T16:34:32.686Z,3.63
2022-08-05T16:36:35.325Z,2.97
2022-08-05T16:38:38.430Z,3.07
2022-08-05T16:40:51.692Z,3.23
2022-08-05T16:42:58.105Z,3.03
2022-08-05T16:45:00.923Z,3.10
2022-08-05T16:47:05.290Z,2.63
2022-08-05T16:49:29.101Z,3.07
2022-08-05T16:51:42.778Z,2.93
2022-08-05T16:54:03.362Z,2.70
2022-08-05T16:56:14.463Z,2.40
2022-08-05T16:58:19.609Z,2.70
2022-08-05T17:00:25.958Z,2.60
2022-08-05T17:02:39.162Z,3.00
2022-08-05T17:04:41.960Z,2.67
2022-08-05T17:06:44.588Z,2.90
2022-08-05T17:09:01.046Z,2.90
2022-08-05T17:11:04.675Z,2.80
2022-08-05T17:13:17.222Z,2.70
2022-08-05T17:15:24.873Z,2.77
2022-08-05T17:17:52.734Z,2.40
2022-08-05T17:19:58.063Z,2.30
2022-08-05T17:22:01.164Z,2.37
2022-08-05T17:24:14.401Z,2.33
2022-08-05T17:26:26.619Z,2.17
2022-08-05T17:28:29.269Z,2.70
2022-08-05T17:30:32.394Z,2.47
2022-08-05T17:32:35.381Z,2.43
2022-08-05T17:34:39.462Z,1.90
2022-08-05T17:36:42.540Z,2.03
2022-08-05T17:38:46.275Z,2.87
2022-08-05T17:40:49.062Z,2.50
2022-08-05T17:42:53.104Z,2.20
2022-08-05T17:44:56.807Z,2.07
2022-08-05T17:46:59.490Z,2.07
2022-08-05T17:49:02.200Z,1.90
2022-08-05T17:51:09.150Z,2.10
2022-08-05T17:53:13.669Z,2.17
2022-08-05T17:55:17.341Z,2.00
2022-08-05T17:57:21.401Z,1.90
2022-08-05T17:59:24.351Z,2.30
2022-08-05T18:01:27.418Z,2.10
2022-08-05T18:05:53.577Z,1.70
2022-08-05T18:07:58.276Z,1.57
2022-08-05T18:10:08.819Z,2.40
2022-08-05T18:12:13.278Z,1.57
2022-08-05T18:14:25.110Z,1.60
2022-08-05T18:16:28.251Z,2.07
2022-08-05T18:18:30.903Z,1.87
2022-08-05T18:20:33.565Z,1.60
2022-08-05T18:22:54.187Z,1.70
2022-08-05T18:24:59.278Z,1.37
2022-08-05T18:27:01.979Z,1.57
2022-08-05T18:29:04.917Z,1.43
2022-08-05T18:31:13.209Z,1.63
2022-08-05T18:33:22.657Z,1.50
2022-08-05T18:35:49.486Z,2.77
2022-08-05T18:37:48.610Z,1.30
2022-08-05T18:40:57.637Z,2.00
2022-08-05T18:42:19.564Z,1.40
2022-08-05T18:44:33.270Z,1.17
2022-08-05T18:46:37.971Z,1.47
2022-08-05T18:48:43.867Z,1.77
2022-08-05T18:51:49.601Z,1.53
2022-08-05T18:53:22.909Z,1.40
2022-08-05T18:55:30.327Z,1.73
2022-08-05T18:57:49.908Z,1.20
2022-08-05T19:00:03.155Z,1.27
2022-08-05T19:02:26.435Z,1.30
2022-08-05T19:04:31.329Z,1.50
2022-08-05T19:06:44.638Z,1.40
2022-08-05T19:08:48.328Z,1.47
2022-08-05T19:10:51.077Z,1.53
2022-08-05T19:12:55.061Z,1.80
2022-08-05T19:15:00.328Z,1.37
2022-08-05T19:17:06.390Z,1.40
2022-08-05T19:19:10.353Z,1.50
2022-08-05T19:21:15.752Z,1.43
2022-08-05T19:24:04.139Z,1.50
2022-08-05T19:25:43.726Z,2.10
2022-08-05T19:27:47.196Z,2.10
2022-08-05T19:29:53.960Z,2.50
2022-08-05T19:31:58.583Z,3.90
2022-08-05T19:34:02.738Z,5.73
2022-08-05T19:36:06.509Z,4.10
2022-08-05T19:38:09.902Z,4.73
2022-08-05T19:40:15.039Z,5.80
2022-08-05T19:42:17.952Z,5.30
2022-08-05T19:44:20.695Z,4.63
2022-08-05T19:46:29.539Z,4.00
2022-08-05T19:48:34.126Z,3.30
2022-08-05T19:50:38.193Z,2.70
2022-08-05T19:52:41.200Z,2.60
2022-08-05T19:54:44.492Z,2.33
2022-08-05T19:56:48.153Z,2.00
2022-08-05T19:58:53.539Z,1.73
2022-08-05T20:00:57.784Z,1.87
2022-08-05T20:03:05.292Z,1.70
2022-08-05T20:05:16.623Z,2.30
2022-08-05T20:07:46.722Z,1.80
2022-08-05T20:09:53.550Z,1.83
2022-08-05T20:11:58.120Z,1.77
2022-08-05T20:14:12.828Z,2.00
2022-08-05T20:16:19.510Z,1.43
2022-08-05T20:18:35.887Z,1.70
2022-08-05T20:20:39.262Z,1.40
2022-08-05T20:22:41.994Z,1.63
2022-08-05T20:24:47.283Z,1.67
2022-08-05T20:26:51.708Z,1.60
2022-08-05T20:28:55.771Z,1.57
2022-08-05T20:30:58.787Z,1.60
2022-08-05T20:33:01.880Z,1.70
2022-08-05T20:35:06.690Z,1.70
2022-08-05T20:37:17.726Z,1.63
2022-08-05T20:39:36.472Z,1.70
2022-08-05T20:41:43.888Z,1.73
2022-08-05T20:43:59.774Z,1.47
2022-08-05T20:46:06.660Z,1.23
2022-08-05T20:48:09.452Z,1.40
2022-08-05T20:50:13.870Z,1.70
2022-08-05T20:52:18.499Z,1.70
2022-08-05T20:54:21.331Z,2.63
2022-08-05T20:56:29.689Z,1.83
2022-08-05T20:58:35.092Z,1.60
2022-08-05T21:00:44.270Z,1.60
2022-08-05T21:03:01.242Z,2.00
2022-08-05T21:05:06.156Z,1.80
2022-08-05T21:07:14.111Z,1.60
2022-08-05T21:09:16.988Z,1.90
2022-08-05T21:12:09.192Z,1.50
2022-08-05T21:13:56.071Z,1.60
2022-08-05T21:16:00.513Z,1.40
2022-08-05T21:18:06.141Z,1.70
2022-08-05T21:20:14.652Z,1.67
2022-08-05T21:22:40.573Z,1.93
2022-08-05T21:24:43.335Z,1.70
2022-08-05T21:26:53.679Z,2.10
2022-08-05T21:29:03.857Z,1.60
2022-08-05T21:31:08.370Z,1.70
2022-08-05T21:33:22.424Z,1.60
2022-08-05T21:35:29.757Z,1.80
2022-08-05T21:37:33.321Z,1.83
2022-08-05T21:39:40.645Z,2.20
2022-08-05T21:41:52.631Z,1.80
2022-08-05T21:44:04.790Z,1.70
2022-08-05T21:46:07.733Z,2.00
2022-08-05T21:48:10.364Z,1.60
2022-08-05T21:50:16.859Z,1.40
2022-08-05T21:52:27.214Z,1.97
2022-08-05T21:54:31.367Z,1.70
2022-08-05T21:56:35.426Z,1.67
2022-08-05T21:58:57.392Z,2.10
2022-08-05T22:01:02.354Z,1.40
2022-08-05T22:03:05.020Z,1.70
2022-08-05T22:05:09.616Z,1.50
2022-08-05T22:07:12.304Z,1.80
2022-08-05T22:09:15.700Z,2.13
2022-08-05T22:11:34.703Z,1.80
2022-08-05T22:14:32.558Z,2.03
2022-08-05T22:16:20.418Z,1.80
2022-08-05T22:18:27.258Z,1.60
2022-08-05T22:20:31.005Z,2.07
2022-08-05T22:22:55.549Z,2.23
2022-08-05T22:25:18.212Z,1.77
2022-08-05T22:28:05.021Z,1.60
2022-08-05T22:30:02.034Z,1.83
2022-08-05T22:32:05.151Z,2.20
2022-08-05T22:34:25.673Z,1.97
2022-08-05T22:36:32.366Z,1.90
2022-08-05T22:38:35.041Z,1.80
2022-08-05T22:40:37.833Z,2.17
2022-08-05T22:42:41.423Z,1.77
2022-08-05T22:44:56.704Z,1.90
2022-08-05T22:47:01.140Z,1.77
2022-08-05T22:49:23.418Z,1.90
2022-08-05T22:52:04.736Z,2.30
2022-08-05T22:53:58.339Z,2.07
2022-08-05T22:56:01.364Z,1.77
2022-08-05T22:58:04.381Z,2.10
2022-08-05T23:00:08.761Z,1.63
2022-08-05T23:02:16.913Z,1.70
2022-08-05T23:04:19.888Z,1.77
2022-08-05T23:06:22.990Z,1.40
2022-08-05T23:08:29.251Z,1.63
2022-08-05T23:10:32.119Z,1.87
2022-08-05T23:12:34.857Z,1.73
2022-08-05T23:14:43.779Z,1.73
2022-08-05T23:16:58.929Z,1.90
2022-08-05T23:19:03.855Z,1.60
2022-08-05T23:21:11.362Z,1.40
2022-08-05T23:23:19.732Z,1.73
2022-08-05T23:25:51.179Z,1.50
2022-08-05T23:27:57.644Z,1.30
2022-08-05T23:30:01.856Z,1.57
2022-08-05T23:32:11.089Z,1.63
2022-08-05T23:34:15.039Z,1.60
2022-08-05T23:36:28.285Z,1.57
2022-08-05T23:38:32.285Z,1.53
2022-08-05T23:40:34.998Z,2.50
2022-08-05T23:42:38.178Z,1.60
2022-08-05T23:44:42.590Z,5.40
2022-08-05T23:46:45.349Z,1.80
2022-08-05T23:49:01.051Z,2.00
2022-08-05T23:51:06.004Z,1.87
2022-08-05T23:53:22.230Z,1.73
2022-08-05T23:55:31.082Z,2.10
2022-08-05T23:57:34.784Z,1.80
